Time;durP1;ratioP1;P1;durP2;ratioP2;P2;SDS_P1;SDS_P2;PMS_P1;PMS_P2;Temp;Humidity;BMP_temperature;BMP_pressure;BME280_temperature;BME280_humidity;BME280_pressure;Samples;Min_cycle;Max_cycle;Signal;HPM_P1;HPM_P2
2022/11/08 00:02:06;;;;;;;1.33;1.10;;;;;;;;;;4980174;28;20034;-86
2022/11/08 00:04:31;;;;;;;2.38;1.40;;;;;;;;;;4996615;28;20510;-86
2022/11/08 00:15:09;;;;;;;4.20;1.48;;;;;;;;;;4977856;28;19913;-86
2022/11/08 00:17:35;;;;;;;3.42;1.40;;;;;;;;;;4980027;28;20038;-86
2022/11/08 00:20:00;;;;;;;2.40;1.33;;;;;;;;;;4980077;28;20030;-86
2022/11/08 00:22:29;;;;;;;2.55;1.20;;;;;;;;;;4997571;28;20049;-86
2022/11/08 00:24:54;;;;;;;2.80;1.20;;;;;;;;;;4996782;28;20038;-86
2022/11/08 00:27:22;;;;;;;2.50;1.42;;;;;;;;;;4996922;28;20027;-86
2022/11/08 00:29:47;;;;;;;1.92;1.17;;;;;;;;;;4996760;28;20042;-86
2022/11/08 00:32:18;;;;;;;3.15;1.27;;;;;;;;;;4997053;28;20034;-85
2022/11/08 00:34:44;;;;;;;2.35;1.15;;;;;;;;;;4996488;28;20042;-86
2022/11/08 00:37:10;;;;;;;2.17;1.20;;;;;;;;;;4979595;28;20509;-86
2022/11/08 00:39:36;;;;;;;3.25;1.20;;;;;;;;;;4980076;28;20038;-86
2022/11/08 00:42:02;;;;;;;2.35;1.42;;;;;;;;;;4983354;28;20092;-86
2022/11/08 00:44:27;;;;;;;4.60;1.50;;;;;;;;;;5000509;28;20026;-86
2022/11/08 00:46:53;;;;;;;1.95;1.30;;;;;;;;;;5000073;28;20399;-86
2022/11/08 00:49:19;;;;;;;1.75;1.20;;;;;;;;;;4982574;28;20030;-85
2022/11/08 00:51:44;;;;;;;1.38;1.13;;;;;;;;;;5000732;28;20071;-85
2022/11/08 00:54:14;;;;;;;2.08;1.30;;;;;;;;;;4982026;28;20038;-85
2022/11/08 00:56:40;;;;;;;2.10;1.20;;;;;;;;;;4983183;28;20141;-85
2022/11/08 00:59:05;;;;;;;1.40;1.10;;;;;;;;;;4983223;28;20053;-86
2022/11/08 01:01:31;;;;;;;2.38;1.20;;;;;;;;;;5000256;28;20038;-86
2022/11/08 01:03:56;;;;;;;3.47;1.27;;;;;;;;;;4981974;28;20465;-85
2022/11/08 01:06:24;;;;;;;3.03;1.20;;;;;;;;;;4999635;28;20380;-85
2022/11/08 01:08:50;;;;;;;1.73;1.20;;;;;;;;;;4982388;28;20110;-86
2022/11/08 01:11:20;;;;;;;1.65;1.23;;;;;;;;;;5000068;28;20042;-85
2022/11/08 01:13:48;;;;;;;2.15;1.17;;;;;;;;;;4999138;28;20048;-86
2022/11/08 01:16:19;;;;;;;1.45;1.10;;;;;;;;;;4999801;28;20034;-86
2022/11/08 01:18:46;;;;;;;2.28;1.15;;;;;;;;;;4999831;28;20034;-86
2022/11/08 01:21:13;;;;;;;3.47;1.20;;;;;;;;;;4982383;28;20058;-85
2022/11/08 01:23:38;;;;;;;4.65;1.10;;;;;;;;;;4999982;28;20041;-86
2022/11/08 01:26:08;;;;;;;1.65;1.10;;;;;;;;;;4998620;28;20125;-85
2022/11/08 01:28:34;;;;;;;2.80;1.20;;;;;;;;;;4982200;28;20463;-85
2022/11/08 01:31:05;;;;;;;1.77;1.20;;;;;;;;;;4999513;28;20474;-86
2022/11/08 01:33:32;;;;;;;1.50;0.90;;;;;;;;;;4999558;28;20065;-85
2022/11/08 01:35:58;;;;;;;1.75;1.20;;;;;;;;;;4998329;28;20034;-86
2022/11/08 01:38:23;;;;;;;2.55;1.05;;;;;;;;;;4999986;28;20041;-85
2022/11/08 01:40:49;;;;;;;1.40;1.00;;;;;;;;;;4999464;28;20062;-85
2022/11/08 01:43:29;;;;;;;1.83;1.10;;;;;;;;;;4999591;28;20038;-86
2022/11/08 01:46:17;;;;;;;3.20;1.33;;;;;;;;;;4998739;28;20034;-86
2022/11/08 01:49:07;;;;;;;2.95;1.25;;;;;;;;;;4999547;28;20034;-86
2022/11/08 01:51:40;;;;;;;1.73;1.10;;;;;;;;;;4981455;28;20030;-85
2022/11/08 01:54:10;;;;;;;1.58;1.00;;;;;;;;;;4998824;28;20198;-84
2022/11/08 01:56:36;;;;;;;1.45;1.08;;;;;;;;;;4998789;28;20042;-86
2022/11/08 01:59:06;;;;;;;1.88;1.10;;;;;;;;;;4981765;28;20022;-86
2022/11/08 02:01:31;;;;;;;1.77;1.08;;;;;;;;;;4999061;28;20141;-86
2022/11/08 02:03:58;;;;;;;2.58;1.33;;;;;;;;;;4997938;28;20066;-83
2022/11/08 02:06:24;;;;;;;1.98;1.08;;;;;;;;;;4981258;28;20117;-86
2022/11/08 02:08:49;;;;;;;1.98;1.20;;;;;;;;;;4980927;28;20085;-85
2022/11/08 02:11:17;;;;;;;1.65;1.10;;;;;;;;;;4980687;28;20507;-85
2022/11/08 02:13:42;;;;;;;1.48;1.00;;;;;;;;;;4997744;28;20050;-85
2022/11/08 02:16:13;;;;;;;1.85;1.10;;;;;;;;;;4998627;28;20046;-86
2022/11/08 02:18:41;;;;;;;1.80;1.00;;;;;;;;;;4980841;28;20088;-85
2022/11/08 02:21:37;;;;;;;2.45;1.17;;;;;;;;;;4981911;28;20464;-85
2022/11/08 02:24:08;;;;;;;2.00;1.10;;;;;;;;;;4998584;28;20030;-85
2022/11/08 02:26:35;;;;;;;2.08;1.10;;;;;;;;;;4997860;28;20103;-85
2022/11/08 02:29:29;;;;;;;1.73;1.00;;;;;;;;;;4998294;28;20042;-85
2022/11/08 02:31:56;;;;;;;4.10;1.13;;;;;;;;;;4998903;28;20045;-85
2022/11/08 02:34:29;;;;;;;12.93;1.20;;;;;;;;;;4980878;28;20510;-86
2022/11/08 02:36:55;;;;;;;1.65;1.08;;;;;;;;;;4980907;28;20478;-85
2022/11/08 02:39:20;;;;;;;2.20;1.30;;;;;;;;;;4980461;28;20040;-85
2022/11/08 02:41:46;;;;;;;1.15;1.00;;;;;;;;;;4998209;28;20038;-85
2022/11/08 02:44:11;;;;;;;2.55;1.10;;;;;;;;;;4998130;28;20038;-86
2022/11/08 02:46:37;;;;;;;1.55;1.10;;;;;;;;;;4997577;28;20398;-85
2022/11/08 02:49:02;;;;;;;2.15;1.20;;;;;;;;;;4998141;28;20045;-86
2022/11/08 02:51:27;;;;;;;3.05;1.30;;;;;;;;;;4980275;28;20026;-85
2022/11/08 02:53:53;;;;;;;1.88;1.17;;;;;;;;;;4988164;28;20402;-85
2022/11/08 02:56:18;;;;;;;2.22;1.13;;;;;;;;;;4997240;28;20046;-85
2022/11/08 02:58:44;;;;;;;2.10;1.20;;;;;;;;;;4997700;28;20034;-84
2022/11/08 03:01:09;;;;;;;1.95;1.10;;;;;;;;;;4997795;28;20069;-87
2022/11/08 03:03:35;;;;;;;2.10;1.23;;;;;;;;;;4979936;28;20041;-86
2022/11/08 03:06:00;;;;;;;2.65;1.23;;;;;;;;;;4997441;28;20454;-86
2022/11/08 03:08:26;;;;;;;1.13;0.93;;;;;;;;;;4997345;28;20487;-86
2022/11/08 03:10:51;;;;;;;2.42;1.10;;;;;;;;;;4998006;28;20127;-86
2022/11/08 03:13:17;;;;;;;1.45;1.10;;;;;;;;;;4996484;28;20028;-86
2022/11/08 03:15:42;;;;;;;1.70;1.20;;;;;;;;;;4997156;28;20040;-87
2022/11/08 03:18:07;;;;;;;1.40;1.02;;;;;;;;;;4997923;28;20411;-87
2022/11/08 03:20:33;;;;;;;2.47;1.40;;;;;;;;;;4997844;28;20161;-87
2022/11/08 03:23:01;;;;;;;5.10;1.20;;;;;;;;;;4979756;28;20125;-86
2022/11/08 03:25:27;;;;;;;2.13;1.10;;;;;;;;;;4996552;28;20125;-86
2022/11/08 03:27:52;;;;;;;2.22;1.10;;;;;;;;;;4996888;28;20042;-86
2022/11/08 03:30:18;;;;;;;1.73;1.20;;;;;;;;;;4979468;28;20038;-86
2022/11/08 03:32:45;;;;;;;3.10;1.10;;;;;;;;;;4997785;28;20465;-86
2022/11/08 03:35:11;;;;;;;1.38;1.05;;;;;;;;;;4979320;28;20043;-85
2022/11/08 03:37:37;;;;;;;1.92;1.08;;;;;;;;;;4997302;28;20099;-86
2022/11/08 03:40:03;;;;;;;2.08;1.20;;;;;;;;;;4998096;28;20514;-86
2022/11/08 03:42:28;;;;;;;1.70;1.00;;;;;;;;;;4979569;28;20038;-87
2022/11/08 03:44:53;;;;;;;2.25;1.20;;;;;;;;;;4996251;28;20123;-86
2022/11/08 03:47:19;;;;;;;1.13;0.90;;;;;;;;;;4996992;28;20042;-86
2022/11/08 03:49:44;;;;;;;1.48;1.00;;;;;;;;;;4997167;28;20038;-86
2022/11/08 03:52:11;;;;;;;2.58;1.10;;;;;;;;;;4996938;28;20480;-86
2022/11/08 03:54:37;;;;;;;1.63;1.00;;;;;;;;;;4996369;28;20042;-87
2022/11/08 03:57:02;;;;;;;2.10;1.08;;;;;;;;;;4979420;28;20088;-86
2022/11/08 03:59:28;;;;;;;1.50;1.00;;;;;;;;;;4996418;28;20056;-86
2022/11/08 04:01:53;;;;;;;1.30;0.90;;;;;;;;;;4997453;28;20034;-86
2022/11/08 04:04:19;;;;;;;1.92;1.27;;;;;;;;;;4996083;28;20061;-86
2022/11/08 04:06:44;;;;;;;1.92;1.10;;;;;;;;;;4980000;28;20042;-86
2022/11/08 04:09:09;;;;;;;2.53;1.17;;;;;;;;;;4997049;28;20037;-85
2022/11/08 04:17:03;;;;;;;2.80;1.02;;;;;;;;;;4979615;28;20121;-86
2022/11/08 04:22:12;;;;;;;1.50;0.93;;;;;;;;;;4997089;28;20034;-86
2022/11/08 04:24:38;;;;;;;3.38;1.10;;;;;;;;;;4963478;28;20053;-86
2022/11/08 04:27:03;;;;;;;2.00;1.15;;;;;;;;;;4996545;28;20510;-87
2022/11/08 04:29:29;;;;;;;1.50;1.10;;;;;;;;;;4978732;28;20058;-87
2022/11/08 04:31:54;;;;;;;1.25;1.10;;;;;;;;;;4978706;28;20038;-86
2022/11/08 04:34:20;;;;;;;1.75;1.00;;;;;;;;;;4978400;28;20042;-86
2022/11/08 04:36:45;;;;;;;1.75;1.00;;;;;;;;;;4979206;28;20410;-86
2022/11/08 04:39:11;;;;;;;2.05;1.20;;;;;;;;;;4997312;28;20038;-86
2022/11/08 04:41:36;;;;;;;1.30;0.90;;;;;;;;;;4979303;28;20042;-86
2022/11/08 04:44:02;;;;;;;2.08;1.20;;;;;;;;;;4996427;28;20060;-86
2022/11/08 04:46:28;;;;;;;1.58;1.10;;;;;;;;;;4996733;28;20380;-86
2022/11/08 04:48:56;;;;;;;1.77;1.05;;;;;;;;;;4997900;28;20048;-86
2022/11/08 04:51:27;;;;;;;1.35;1.10;;;;;;;;;;4997128;28;20030;-86
2022/11/08 04:53:58;;;;;;;1.80;1.10;;;;;;;;;;4996057;28;20037;-87
2022/11/08 04:56:25;;;;;;;1.52;1.00;;;;;;;;;;4979371;28;20076;-86
2022/11/08 04:58:52;;;;;;;3.22;1.20;;;;;;;;;;4997160;28;20041;-87
2022/11/08 05:01:24;;;;;;;2.50;1.20;;;;;;;;;;4979634;28;20096;-86
2022/11/08 05:03:51;;;;;;;1.38;1.00;;;;;;;;;;4996282;28;20113;-85
2022/11/08 05:06:23;;;;;;;1.85;1.00;;;;;;;;;;4978575;28;20030;-86
2022/11/08 05:08:49;;;;;;;2.00;1.20;;;;;;;;;;4996550;28;20043;-86
2022/11/08 05:11:18;;;;;;;1.45;1.10;;;;;;;;;;4977966;28;20513;-86
2022/11/08 05:13:44;;;;;;;2.50;0.90;;;;;;;;;;4977945;28;20085;-86
2022/11/08 05:16:40;;;;;;;1.40;1.10;;;;;;;;;;4994830;28;20042;-86
2022/11/08 05:19:05;;;;;;;2.15;1.25;;;;;;;;;;4974576;28;20423;-86
2022/11/08 05:24:16;;;;;;;1.88;1.20;;;;;;;;;;4995350;28;20209;-86
2022/11/08 05:26:44;;;;;;;2.30;1.40;;;;;;;;;;4997786;28;20073;-86
2022/11/08 05:29:10;;;;;;;2.30;1.30;;;;;;;;;;4999093;28;20097;-86
2022/11/08 05:31:36;;;;;;;1.50;1.10;;;;;;;;;;4999325;28;20034;-86
2022/11/08 05:34:01;;;;;;;1.83;1.00;;;;;;;;;;4999115;28;20056;-86
2022/11/08 05:36:28;;;;;;;1.48;1.05;;;;;;;;;;4980741;28;20073;-86
2022/11/08 05:38:53;;;;;;;1.48;1.10;;;;;;;;;;4999636;28;20085;-86
2022/11/08 05:41:21;;;;;;;2.80;1.40;;;;;;;;;;4999097;28;20034;-86
2022/11/08 05:43:49;;;;;;;3.08;1.60;;;;;;;;;;4999037;28;20041;-85
2022/11/08 05:46:17;;;;;;;3.58;1.20;;;;;;;;;;4998111;28;20045;-85
2022/11/08 05:48:43;;;;;;;1.70;1.20;;;;;;;;;;4998815;28;20031;-85
2022/11/08 05:51:10;;;;;;;1.33;1.02;;;;;;;;;;4998798;28;20125;-85
2022/11/08 05:53:37;;;;;;;3.33;1.77;;;;;;;;;;4998704;28;20041;-85
2022/11/08 05:56:03;;;;;;;1.90;1.55;;;;;;;;;;4997970;28;20181;-86
2022/11/08 05:58:30;;;;;;;2.42;1.40;;;;;;;;;;4999211;28;20034;-86
2022/11/08 06:01:04;;;;;;;3.08;1.90;;;;;;;;;;4981059;28;20058;-86
2022/11/08 06:03:29;;;;;;;1.88;1.30;;;;;;;;;;4998615;28;20046;-87
2022/11/08 06:05:59;;;;;;;2.65;1.35;;;;;;;;;;4998034;28;20044;-86
2022/11/08 06:08:25;;;;;;;1.77;1.25;;;;;;;;;;4981384;28;20046;-86
2022/11/08 06:10:50;;;;;;;1.73;1.20;;;;;;;;;;4981150;28;20384;-86
2022/11/08 06:13:16;;;;;;;3.17;1.30;;;;;;;;;;4998965;28;20461;-86
2022/11/08 06:15:41;;;;;;;1.65;1.10;;;;;;;;;;5001537;28;20038;-86
2022/11/08 06:18:06;;;;;;;1.88;1.10;;;;;;;;;;5000180;28;20085;-87
2022/11/08 06:20:32;;;;;;;2.08;1.27;;;;;;;;;;5000824;28;20173;-86
2022/11/08 06:22:57;;;;;;;3.53;1.30;;;;;;;;;;5000436;28;20053;-86
2022/11/08 06:25:23;;;;;;;2.15;1.30;;;;;;;;;;4999263;28;20030;-86
2022/11/08 06:27:48;;;;;;;2.28;1.38;;;;;;;;;;5000943;28;20130;-87
2022/11/08 06:30:14;;;;;;;3.42;1.10;;;;;;;;;;5000491;28;20042;-86
2022/11/08 06:32:39;;;;;;;1.90;1.30;;;;;;;;;;4999046;28;20026;-86
2022/11/08 06:35:05;;;;;;;2.40;1.30;;;;;;;;;;4997355;28;20070;-86
2022/11/08 06:37:30;;;;;;;2.38;1.55;;;;;;;;;;4996307;28;20359;-86
2022/11/08 06:39:57;;;;;;;3.60;1.70;;;;;;;;;;4998108;28;20037;-86
2022/11/08 06:42:23;;;;;;;2.75;2.10;;;;;;;;;;4997880;28;20037;-85
2022/11/08 06:44:49;;;;;;;4.95;3.17;;;;;;;;;;4980016;28;20034;-85
2022/11/08 06:47:14;;;;;;;3.20;2.10;;;;;;;;;;4997153;28;20043;-86
2022/11/08 06:49:40;;;;;;;3.78;2.63;;;;;;;;;;4996942;28;20030;-86
2022/11/08 06:52:05;;;;;;;2.70;1.40;;;;;;;;;;4997288;28;20417;-86
2022/11/08 06:54:31;;;;;;;2.70;1.80;;;;;;;;;;4979226;28;20039;-86
2022/11/08 06:56:59;;;;;;;4.40;1.40;;;;;;;;;;4997353;28;20026;-85
2022/11/08 06:59:26;;;;;;;2.80;1.20;;;;;;;;;;4997376;28;20026;-85
2022/11/08 07:01:52;;;;;;;4.88;3.30;;;;;;;;;;4996984;28;20038;-85
2022/11/08 07:04:18;;;;;;;2.20;1.38;;;;;;;;;;4996573;28;20045;-85
2022/11/08 07:06:43;;;;;;;1.20;1.00;;;;;;;;;;4997347;28;20042;-85
2022/11/08 07:09:09;;;;;;;2.20;1.30;;;;;;;;;;4996841;28;20041;-85
2022/11/08 07:11:35;;;;;;;1.45;1.10;;;;;;;;;;4996257;28;20100;-85
2022/11/08 07:14:00;;;;;;;1.42;1.10;;;;;;;;;;4996180;28;20034;-85
2022/11/08 07:16:26;;;;;;;1.25;0.95;;;;;;;;;;5011843;28;20483;-85
2022/11/08 07:18:52;;;;;;;1.10;0.90;;;;;;;;;;4995950;28;20114;-85
2022/11/08 07:21:17;;;;;;;2.53;1.00;;;;;;;;;;4997004;28;20041;-85
2022/11/08 07:23:43;;;;;;;1.02;0.90;;;;;;;;;;4996535;28;20053;-85
2022/11/08 07:26:10;;;;;;;3.50;0.90;;;;;;;;;;4978342;28;20129;-84
2022/11/08 07:28:35;;;;;;;1.73;1.08;;;;;;;;;;4996351;28;20052;-84
2022/11/08 07:31:03;;;;;;;1.35;0.80;;;;;;;;;;4996114;28;20057;-84
2022/11/08 07:33:29;;;;;;;1.10;0.90;;;;;;;;;;4996205;28;20442;-84
2022/11/08 07:35:55;;;;;;;0.85;0.80;;;;;;;;;;4996217;28;20034;-84
2022/11/08 07:38:21;;;;;;;1.45;0.90;;;;;;;;;;4997006;28;20549;-84
2022/11/08 07:40:47;;;;;;;2.60;0.95;;;;;;;;;;4979937;28;20050;-85
2022/11/08 07:43:12;;;;;;;1.85;1.00;;;;;;;;;;4996779;28;20042;-85
2022/11/08 07:45:39;;;;;;;1.42;0.90;;;;;;;;;;4980061;28;20038;-85
2022/11/08 07:48:08;;;;;;;1.65;1.10;;;;;;;;;;4998908;28;20061;-86
2022/11/08 07:50:33;;;;;;;1.30;0.90;;;;;;;;;;4996469;28;20038;-85
2022/11/08 07:52:59;;;;;;;1.50;1.00;;;;;;;;;;4996354;28;20045;-85
2022/11/08 07:55:25;;;;;;;1.48;0.98;;;;;;;;;;4995453;28;20399;-85
2022/11/08 07:57:55;;;;;;;1.80;0.73;;;;;;;;;;4996457;28;20038;-85
2022/11/08 08:00:21;;;;;;;3.70;0.90;;;;;;;;;;4996927;28;20034;-84
2022/11/08 08:02:46;;;;;;;3.03;0.90;;;;;;;;;;4979261;28;20402;-84
2022/11/08 08:05:12;;;;;;;1.42;0.95;;;;;;;;;;4976954;28;20418;-84
2022/11/08 08:07:37;;;;;;;1.42;0.98;;;;;;;;;;4997025;28;20038;-85
2022/11/08 08:10:03;;;;;;;0.68;0.68;;;;;;;;;;4994879;28;20495;-84
2022/11/08 08:12:29;;;;;;;1.30;0.80;;;;;;;;;;4978514;28;20065;-85
2022/11/08 08:14:54;;;;;;;2.47;0.90;;;;;;;;;;4975692;28;20509;-83
2022/11/08 08:17:19;;;;;;;1.40;0.90;;;;;;;;;;4994750;28;20065;-82
2022/11/08 08:19:45;;;;;;;1.85;1.02;;;;;;;;;;4994868;28;20038;-83
2022/11/08 08:22:10;;;;;;;1.85;0.95;;;;;;;;;;4994850;28;20121;-86
2022/11/08 08:24:36;;;;;;;2.08;0.90;;;;;;;;;;4994367;28;20081;-86
2022/11/08 08:27:01;;;;;;;1.77;1.02;;;;;;;;;;4994432;28;20050;-85
2022/11/08 08:29:29;;;;;;;1.13;0.90;;;;;;;;;;4994962;28;20034;-85
2022/11/08 08:31:55;;;;;;;1.92;1.00;;;;;;;;;;4995334;28;20126;-85
2022/11/08 08:34:20;;;;;;;2.30;0.90;;;;;;;;;;4995218;28;20062;-86
2022/11/08 08:36:46;;;;;;;1.08;0.90;;;;;;;;;;4995856;28;20172;-85
2022/11/08 08:39:11;;;;;;;1.52;1.00;;;;;;;;;;4978930;28;20026;-86
2022/11/08 08:41:37;;;;;;;1.20;0.70;;;;;;;;;;4995518;28;20042;-86
2022/11/08 08:44:02;;;;;;;7.45;1.10;;;;;;;;;;4994547;28;20030;-86
2022/11/08 08:46:28;;;;;;;1.02;0.80;;;;;;;;;;4976928;28;20030;-86
2022/11/08 08:48:53;;;;;;;0.65;0.60;;;;;;;;;;4995971;28;20030;-86
2022/11/08 08:51:19;;;;;;;1.20;0.80;;;;;;;;;;4978022;28;20133;-86
2022/11/08 08:53:44;;;;;;;0.68;0.60;;;;;;;;;;4995748;28;20030;-86
2022/11/08 08:56:10;;;;;;;1.17;0.77;;;;;;;;;;4994065;28;20125;-86
2022/11/08 08:58:35;;;;;;;1.20;0.70;;;;;;;;;;4976693;28;20104;-86
2022/11/08 09:01:03;;;;;;;0.90;0.80;;;;;;;;;;4994497;28;20038;-85
2022/11/08 09:03:29;;;;;;;0.60;0.60;;;;;;;;;;4997731;28;20454;-86
2022/11/08 09:05:58;;;;;;;3.83;0.98;;;;;;;;;;4997790;28;20042;-85
2022/11/08 09:08:24;;;;;;;1.40;0.88;;;;;;;;;;4998036;28;20034;-86
2022/11/08 09:10:57;;;;;;;3.22;0.90;;;;;;;;;;4998568;28;20053;-86
2022/11/08 09:13:25;;;;;;;1.13;0.80;;;;;;;;;;4980673;28;20034;-87
2022/11/08 09:15:50;;;;;;;0.98;0.68;;;;;;;;;;5012008;28;20050;-86
2022/11/08 09:18:16;;;;;;;0.82;0.70;;;;;;;;;;4997676;28;20034;-87
2022/11/08 09:20:44;;;;;;;1.23;0.80;;;;;;;;;;4980358;28;20038;-87
2022/11/08 09:23:10;;;;;;;0.60;0.60;;;;;;;;;;4997456;28;20097;-86
2022/11/08 09:25:36;;;;;;;1.30;0.80;;;;;;;;;;4980576;28;20038;-87
2022/11/08 09:28:03;;;;;;;1.23;0.80;;;;;;;;;;4979817;28;20034;-86
2022/11/08 09:30:28;;;;;;;1.10;0.80;;;;;;;;;;5012275;28;20522;-86
2022/11/08 09:32:56;;;;;;;1.30;0.77;;;;;;;;;;4997252;28;20064;-86
2022/11/08 09:35:24;;;;;;;0.82;0.68;;;;;;;;;;5011660;28;20035;-87
2022/11/08 09:37:52;;;;;;;2.00;0.70;;;;;;;;;;4996844;28;20495;-87
2022/11/08 09:40:25;;;;;;;1.42;0.88;;;;;;;;;;4979708;28;20026;-87
2022/11/08 09:43:28;;;;;;;1.77;0.82;;;;;;;;;;4996899;28;20113;-86
2022/11/08 09:45:56;;;;;;;1.42;0.70;;;;;;;;;;4930459;28;20144;-87
2022/11/08 09:48:36;;;;;;;2.33;0.70;;;;;;;;;;4997190;28;20034;-86
2022/11/08 09:51:09;;;;;;;1.30;1.00;;;;;;;;;;4997099;28;20101;-86
2022/11/08 09:53:43;;;;;;;2.97;0.85;;;;;;;;;;4996502;28;20041;-86
2022/11/08 09:56:22;;;;;;;1.20;0.80;;;;;;;;;;4996574;28;20042;-86
2022/11/08 09:58:50;;;;;;;1.73;1.00;;;;;;;;;;4997590;28;20034;-86
2022/11/08 10:01:16;;;;;;;4.60;0.93;;;;;;;;;;4997265;28;20082;-86
2022/11/08 10:03:46;;;;;;;1.23;0.77;;;;;;;;;;4979856;28;20022;-86
2022/11/08 10:06:32;;;;;;;2.97;0.80;;;;;;;;;;4979030;28;20084;-86
2022/11/08 10:09:12;;;;;;;2.58;0.90;;;;;;;;;;4979586;28;20070;-85
2022/11/08 10:11:50;;;;;;;1.48;0.80;;;;;;;;;;4979805;28;20165;-87
2022/11/08 10:14:26;;;;;;;1.92;0.65;;;;;;;;;;4994385;28;20038;-86
2022/11/08 10:17:26;;;;;;;0.90;0.70;;;;;;;;;;4979734;28;20047;-85
2022/11/08 10:20:07;;;;;;;2.10;0.70;;;;;;;;;;4997772;28;20088;-87
2022/11/08 10:23:01;;;;;;;1.23;0.77;;;;;;;;;;4996726;28;20487;-86
2022/11/08 10:25:34;;;;;;;1.05;0.80;;;;;;;;;;4995691;28;20065;-86
2022/11/08 10:28:02;;;;;;;0.85;0.70;;;;;;;;;;4978934;28;20117;-87
2022/11/08 10:30:36;;;;;;;0.70;0.60;;;;;;;;;;4996621;28;20030;-86
2022/11/08 10:33:14;;;;;;;0.88;0.60;;;;;;;;;;4979744;28;20040;-86
2022/11/08 10:35:47;;;;;;;0.85;0.70;;;;;;;;;;4979153;28;20050;-86
2022/11/08 10:38:29;;;;;;;1.05;0.70;;;;;;;;;;4996839;28;20038;-86
2022/11/08 10:40:56;;;;;;;2.45;1.40;;;;;;;;;;5012373;28;20034;-84
2022/11/08 10:43:30;;;;;;;1.17;0.80;;;;;;;;;;4999157;28;20038;-86
2022/11/08 10:45:56;;;;;;;1.50;0.90;;;;;;;;;;4996135;28;20062;-86
2022/11/08 10:48:21;;;;;;;1.55;0.90;;;;;;;;;;5009176;23;20522;-83
2022/11/08 10:50:51;;;;;;;1.05;0.68;;;;;;;;;;4961441;28;20061;-83
2022/11/08 10:53:29;;;;;;;0.93;0.82;;;;;;;;;;4978849;28;20038;-83
2022/11/08 10:56:03;;;;;;;1.08;0.80;;;;;;;;;;4960447;28;20065;-83
2022/11/08 10:58:39;;;;;;;0.77;0.77;;;;;;;;;;4977702;28;20062;-83
2022/11/08 11:01:14;;;;;;;1.20;1.00;;;;;;;;;;4978489;28;20042;-84
2022/11/08 11:03:39;;;;;;;2.72;1.65;;;;;;;;;;4961608;28;20034;-84
2022/11/08 11:06:29;;;;;;;1.75;1.10;;;;;;;;;;4978979;28;20385;-87
2022/11/08 11:09:00;;;;;;;1.55;1.20;;;;;;;;;;4960962;28;20543;-83
2022/11/08 11:11:35;;;;;;;1.50;1.00;;;;;;;;;;4950880;28;20034;-86
2022/11/08 11:14:07;;;;;;;1.25;0.80;;;;;;;;;;4959900;28;20478;-82
2022/11/08 11:16:35;;;;;;;2.95;2.00;;;;;;;;;;4979467;28;20503;-85
2022/11/08 11:19:02;;;;;;;1.52;1.00;;;;;;;;;;4962764;28;20554;-86
2022/11/08 11:21:35;;;;;;;2.78;1.00;;;;;;;;;;4962119;28;20039;-85
2022/11/08 11:24:16;;;;;;;0.95;0.60;;;;;;;;;;4960567;28;20062;-84
2022/11/08 11:26:48;;;;;;;0.70;0.52;;;;;;;;;;4961851;28;20035;-85
2022/11/08 11:29:29;;;;;;;1.00;0.80;;;;;;;;;;4963085;28;20061;-85
2022/11/08 11:31:56;;;;;;;2.78;0.85;;;;;;;;;;4962641;28;20043;-84
2022/11/08 11:34:43;;;;;;;1.55;0.77;;;;;;;;;;4979870;28;20518;-85
2022/11/08 11:37:09;;;;;;;1.63;0.60;;;;;;;;;;4980289;28;20081;-85
2022/11/08 11:40:13;;;;;;;3.17;0.80;;;;;;;;;;4963413;28;20448;-85
2022/11/08 11:42:41;;;;;;;;;;;;;;;;;;4952147;28;20058;-85
2022/11/08 11:45:16;;;;;;;2.17;0.90;;;;;;;;;;4980304;28;19981;-85
2022/11/08 11:47:50;;;;;;;1.52;0.93;;;;;;;;;;4963106;28;20030;-85
2022/11/08 11:50:34;;;;;;;;;;;;;;;;;;4981218;28;20054;-85
2022/11/08 11:53:03;;;;;;;2.67;0.80;;;;;;;;;;4963894;28;20359;-86
2022/11/08 11:55:52;;;;;;;1.25;0.70;;;;;;;;;;4963147;28;20039;-85
2022/11/08 11:58:50;;;;;;;1.10;0.80;;;;;;;;;;4981423;28;20039;-85
2022/11/08 12:01:51;;;;;;;1.52;0.80;;;;;;;;;;4981491;28;20062;-88
2022/11/08 12:04:59;;;;;;;3.92;0.63;;;;;;;;;;4939047;28;20043;-84
2022/11/08 12:07:34;;;;;;;1.73;1.00;;;;;;;;;;4964328;28;20051;-84
2022/11/08 12:10:17;;;;;;;1.20;0.77;;;;;;;;;;4963877;28;20478;-85
2022/11/08 12:13:07;;;;;;;1.77;0.75;;;;;;;;;;4978885;28;20031;-85
2022/11/08 12:15:44;;;;;;;1.35;0.70;;;;;;;;;;4978080;28;20069;-85
2022/11/08 12:18:22;;;;;;;3.75;0.80;;;;;;;;;;4982910;28;20038;-85
2022/11/08 12:20:47;;;;;;;2.83;0.90;;;;;;;;;;4980104;28;20035;-85
2022/11/08 12:23:31;;;;;;;1.02;0.85;;;;;;;;;;4963309;28;20038;-85
2022/11/08 12:26:06;;;;;;;1.67;1.00;;;;;;;;;;4962385;28;20049;-85
2022/11/08 12:29:14;;;;;;;4.97;0.80;;;;;;;;;;4946534;28;20077;-85
2022/11/08 12:32:04;;;;;;;1.00;0.63;;;;;;;;;;4969700;28;20051;-86
2022/11/08 12:34:35;;;;;;;2.17;0.70;;;;;;;;;;4962686;28;20661;-84
2022/11/08 12:37:19;;;;;;;1.08;0.70;;;;;;;;;;4982321;28;20035;-87
2022/11/08 12:39:48;;;;;;;1.08;0.70;;;;;;;;;;4984454;28;20102;-86
2022/11/08 12:42:19;;;;;;;1.48;0.80;;;;;;;;;;4975199;28;20031;-84
2022/11/08 12:45:17;;;;;;;0.80;0.60;;;;;;;;;;4950764;28;20035;-85
2022/11/08 12:47:44;;;;;;;2.05;0.85;;;;;;;;;;4980727;28;20100;-84
2022/11/08 12:50:29;;;;;;;1.25;0.60;;;;;;;;;;4963158;28;20109;-85
2022/11/08 12:53:13;;;;;;;6.18;0.60;;;;;;;;;;4964225;28;20049;-84
2022/11/08 12:55:41;;;;;;;1.27;0.70;;;;;;;;;;4981031;28;20026;-84
2022/11/08 12:58:25;;;;;;;3.55;0.88;;;;;;;;;;4963071;28;20031;-84
2022/11/08 13:00:55;;;;;;;2.88;0.90;;;;;;;;;;4962983;28;20094;-84
2022/11/08 13:03:39;;;;;;;0.60;0.60;;;;;;;;;;4980742;28;20035;-84
2022/11/08 13:06:04;;;;;;;1.45;0.70;;;;;;;;;;4963375;28;20038;-84
2022/11/08 13:08:39;;;;;;;1.40;0.80;;;;;;;;;;4981700;28;20039;-84
2022/11/08 13:11:07;;;;;;;2.05;0.68;;;;;;;;;;4963432;28;20178;-83
2022/11/08 13:13:55;;;;;;;1.42;0.70;;;;;;;;;;4945373;28;20035;-83
2022/11/08 13:16:28;;;;;;;1.13;0.98;;;;;;;;;;4980295;28;20145;-85
2022/11/08 13:19:00;;;;;;;1.30;0.68;;;;;;;;;;4980169;28;20436;-85
2022/11/08 13:21:37;;;;;;;2.95;1.52;;;;;;;;;;4963306;28;20134;-85
2022/11/08 13:24:03;;;;;;;1.17;0.80;;;;;;;;;;4962695;28;20399;-86
2022/11/08 13:26:30;;;;;;;1.05;0.90;;;;;;;;;;4980055;28;20035;-87
2022/11/08 13:29:23;;;;;;;2.20;0.70;;;;;;;;;;4962762;28;20039;-84
2022/11/08 13:32:19;;;;;;;1.35;0.80;;;;;;;;;;4947022;28;20137;-86
2022/11/08 13:34:56;;;;;;;2.08;0.80;;;;;;;;;;4981069;28;20035;-85
2022/11/08 13:37:53;;;;;;;1.15;0.70;;;;;;;;;;4964020;28;20042;-85
2022/11/08 13:40:33;;;;;;;1.75;0.93;;;;;;;;;;4981220;28;20086;-86
2022/11/08 13:43:22;;;;;;;2.75;0.90;;;;;;;;;;4964237;28;20042;-86
2022/11/08 13:45:48;;;;;;;2.47;1.00;;;;;;;;;;4963668;28;20137;-85
2022/11/08 13:48:23;;;;;;;1.40;0.82;;;;;;;;;;4981282;28;20039;-85
2022/11/08 13:50:48;;;;;;;2.40;0.90;;;;;;;;;;4982245;28;20047;-84
2022/11/08 13:53:23;;;;;;;0.95;0.80;;;;;;;;;;4964506;28;20038;-87
2022/11/08 13:55:56;;;;;;;1.35;0.90;;;;;;;;;;4981792;28;20070;-87
2022/11/08 13:58:38;;;;;;;1.85;1.00;;;;;;;;;;4964255;28;20038;-86
2022/11/08 14:01:08;;;;;;;2.17;0.90;;;;;;;;;;4982495;28;20039;-85
2022/11/08 14:03:33;;;;;;;1.90;1.00;;;;;;;;;;4982727;28;20030;-86
2022/11/08 14:06:22;;;;;;;3.20;1.55;;;;;;;;;;4983159;28;20031;-84
2022/11/08 14:09:09;;;;;;;6.45;1.73;;;;;;;;;;4972310;28;20106;-86
2022/11/08 14:11:53;;;;;;;4.75;1.75;;;;;;;;;;4944381;28;20109;-85
2022/11/08 14:14:21;;;;;;;6.50;2.13;;;;;;;;;;4964515;28;20030;-84
2022/11/08 14:17:05;;;;;;;3.08;1.40;;;;;;;;;;4966526;28;20030;-86
2022/11/08 14:19:34;;;;;;;4.03;1.30;;;;;;;;;;4982753;28;20034;-86
2022/11/08 14:22:00;;;;;;;5.78;1.20;;;;;;;;;;4966456;28;20035;-86
2022/11/08 14:24:35;;;;;;;2.63;0.93;;;;;;;;;;4984155;28;20035;-86
2022/11/08 14:27:01;;;;;;;1.90;1.10;;;;;;;;;;4984597;28;20086;-87
2022/11/08 14:29:26;;;;;;;2.67;1.10;;;;;;;;;;4984090;28;20035;-87
2022/11/08 14:32:06;;;;;;;2.85;1.00;;;;;;;;;;4985205;28;20049;-86
2022/11/08 14:34:35;;;;;;;1.90;1.20;;;;;;;;;;4985004;28;20038;-86
2022/11/08 14:37:02;;;;;;;1.67;1.02;;;;;;;;;;4968055;28;20046;-85
2022/11/08 14:39:32;;;;;;;4.47;1.10;;;;;;;;;;4964005;28;20035;-87
2022/11/08 14:42:00;;;;;;;2.80;1.10;;;;;;;;;;4980507;28;20038;-86
2022/11/08 14:44:27;;;;;;;2.85;1.17;;;;;;;;;;4980342;28;20158;-86
2022/11/08 14:46:53;;;;;;;1.80;1.00;;;;;;;;;;4947839;28;20031;-87
2022/11/08 14:49:21;;;;;;;3.97;1.08;;;;;;;;;;4981525;28;20538;-86
2022/11/08 14:52:00;;;;;;;4.32;1.27;;;;;;;;;;4981275;28;20062;-85
2022/11/08 14:54:28;;;;;;;2.17;1.10;;;;;;;;;;4981298;28;20035;-85
2022/11/08 14:56:54;;;;;;;2.30;1.20;;;;;;;;;;4964582;28;20097;-86
2022/11/08 14:59:23;;;;;;;2.60;1.30;;;;;;;;;;4961835;28;20041;-86
2022/11/08 15:01:49;;;;;;;2.10;1.30;;;;;;;;;;4981978;28;20045;-86
2022/11/08 15:04:24;;;;;;;2.95;1.33;;;;;;;;;;4982329;28;20839;-87
2022/11/08 15:06:56;;;;;;;2.60;1.50;;;;;;;;;;4982493;28;20035;-87
2022/11/08 15:09:27;;;;;;;3.50;1.50;;;;;;;;;;4968385;28;20673;-85
2022/11/08 15:11:58;;;;;;;2.15;1.50;;;;;;;;;;4961850;28;20047;-86
2022/11/08 15:14:27;;;;;;;2.75;1.60;;;;;;;;;;4959422;28;20077;-86
2022/11/08 15:16:54;;;;;;;4.15;1.80;;;;;;;;;;4979096;28;20484;-85
2022/11/08 15:19:40;;;;;;;3.30;1.60;;;;;;;;;;4960921;28;20042;-86
2022/11/08 15:22:27;;;;;;;13.38;2.95;;;;;;;;;;4961845;28;20042;-85